Check out our new PWSWeather beta!
PWSweather.com
Personal Weather Stations
Station Observations
ENZIAN1
Bad KleinkirchheimAT 9546

Bad KleinkirchheimAT 9546

Lat: 46.814813, Lon: 13.800813800000014

Elevation: 3540

Station Type: Netatmo weatherstation

High Low Average
Temperature 44.2°F6.8°C 27.5°F-2.5°C 34.1°F1.2°C
Dew Point 29.7°F-1.3°C 19.8°F-6.8°C 24.4°F-4.2°C
Winds - - - N N
Wind Gusts -- -- --
Humidity 82% 58% 73%
Pressure 30.37 in1028.4 mb 30.13 in1020.3 mb -
Precipitation 0.00 in0.0 mm - -
Hour Temp Dew Point Humidity Winds Wind Gusts Pressure Precip Precip Rate Daily Precip Total
12:28 AM 34.0°F1.1°C 25.0°F-3.9°C 75% - N N -- 30.37 in1028.4 mb 0.00 in0.0 mm 0.00 in0.0 mm 0.00 in0.0 mm
12:45 AM 34.0°F1.1°C 25.3°F-3.7°C 76% - N N -- 30.37 in1028.4 mb 0.00 in0.0 mm 0.00 in0.0 mm 0.00 in0.0 mm
01:09 AM 34.0°F1.1°C 25.7°F-3.5°C 77% - N N -- 30.36 in1028.1 mb 0.00 in0.0 mm 0.00 in0.0 mm 0.00 in0.0 mm
01:30 AM 34.3°F1.3°C 25.7°F-3.5°C 76% - N N -- 30.35 in1027.8 mb 0.00 in0.0 mm 0.00 in0.0 mm 0.00 in0.0 mm
01:49 AM 34.5°F1.4°C 25.9°F-3.4°C 76% - N N -- 30.35 in1027.8 mb 0.00 in0.0 mm 0.00 in0.0 mm 0.00 in0.0 mm
02:10 AM 34.3°F1.3°C 25.7°F-3.5°C 76% - N N -- 30.35 in1027.8 mb 0.00 in0.0 mm 0.00 in0.0 mm 0.00 in0.0 mm
02:29 AM 34.3°F1.3°C 25.7°F-3.5°C 76% - N N -- 30.34 in1027.4 mb 0.00 in0.0 mm 0.00 in0.0 mm 0.00 in0.0 mm
02:50 AM 34.2°F1.2°C 25.5°F-3.6°C 76% - N N -- 30.32 in1026.8 mb 0.00 in0.0 mm 0.00 in0.0 mm 0.00 in0.0 mm
03:10 AM 34.2°F1.2°C 25.5°F-3.6°C 76% - N N -- 30.32 in1026.8 mb 0.00 in0.0 mm 0.00 in0.0 mm 0.00 in0.0 mm
03:20 AM 34.2°F1.2°C 25.5°F-3.6°C 76% - N N -- 30.32 in1026.8 mb 0.00 in0.0 mm 0.00 in0.0 mm 0.00 in0.0 mm
03:40 AM 34.0°F1.1°C 25.7°F-3.5°C 77% - N N -- 30.31 in1026.4 mb 0.00 in0.0 mm 0.00 in0.0 mm 0.00 in0.0 mm
04:00 AM 34.0°F1.1°C 25.7°F-3.5°C 77% - N N -- 30.30 in1026.1 mb 0.00 in0.0 mm 0.00 in0.0 mm 0.00 in0.0 mm
04:20 AM 33.8°F1.0°C 25.5°F-3.6°C 77% - N N -- 30.29 in1025.7 mb 0.00 in0.0 mm 0.00 in0.0 mm 0.00 in0.0 mm
04:40 AM 33.6°F0.9°C 25.3°F-3.7°C 77% - N N -- 30.29 in1025.7 mb 0.00 in0.0 mm 0.00 in0.0 mm 0.00 in0.0 mm
05:00 AM 33.4°F0.8°C 25.5°F-3.6°C 78% - N N -- 30.29 in1025.7 mb 0.00 in0.0 mm 0.00 in0.0 mm 0.00 in0.0 mm
05:20 AM 32.9°F0.5°C 25.0°F-3.9°C 78% - N N -- 30.28 in1025.4 mb 0.00 in0.0 mm 0.00 in0.0 mm 0.00 in0.0 mm
05:40 AM 32.4°F0.2°C 24.4°F-4.2°C 78% - N N -- 30.27 in1025.1 mb 0.00 in0.0 mm 0.00 in0.0 mm 0.00 in0.0 mm
06:01 AM 31.6°F-0.2°C 23.7°F-4.6°C 78% - N N -- 30.27 in1025.1 mb 0.00 in0.0 mm 0.00 in0.0 mm 0.00 in0.0 mm
06:21 AM 30.9°F-0.6°C 23.2°F-4.9°C 78% - N N -- 30.28 in1025.4 mb 0.00 in0.0 mm 0.00 in0.0 mm 0.00 in0.0 mm
06:41 AM 30.2°F-1.0°C 22.8°F-5.1°C 79% - N N -- 30.27 in1025.1 mb 0.00 in0.0 mm 0.00 in0.0 mm 0.00 in0.0 mm
07:02 AM 29.7°F-1.3°C 22.3°F-5.4°C 79% - N N -- 30.26 in1024.7 mb 0.00 in0.0 mm 0.00 in0.0 mm 0.00 in0.0 mm
07:21 AM 29.3°F-1.5°C 21.9°F-5.6°C 79% - N N -- 30.27 in1025.1 mb 0.00 in0.0 mm 0.00 in0.0 mm 0.00 in0.0 mm
07:42 AM 29.1°F-1.6°C 22.1°F-5.5°C 80% - N N -- 30.27 in1025.1 mb 0.00 in0.0 mm 0.00 in0.0 mm 0.00 in0.0 mm
08:01 AM 29.1°F-1.6°C 22.1°F-5.5°C 80% - N N -- 30.26 in1024.7 mb 0.00 in0.0 mm 0.00 in0.0 mm 0.00 in0.0 mm
08:22 AM 29.7°F-1.3°C 23.0°F-5.0°C 81% - N N -- 30.26 in1024.7 mb 0.00 in0.0 mm 0.00 in0.0 mm 0.00 in0.0 mm
08:42 AM 30.4°F-0.9°C 24.1°F-4.4°C 82% - N N -- 30.25 in1024.4 mb 0.00 in0.0 mm 0.00 in0.0 mm 0.00 in0.0 mm
09:02 AM 31.3°F-0.4°C 24.8°F-4.0°C 82% - N N -- 30.25 in1024.4 mb 0.00 in0.0 mm 0.00 in0.0 mm 0.00 in0.0 mm
09:22 AM 31.8°F-0.1°C 25.3°F-3.7°C 82% - N N -- 30.24 in1024.0 mb 0.00 in0.0 mm 0.00 in0.0 mm 0.00 in0.0 mm
09:42 AM 32.2°F0.1°C 25.3°F-3.7°C 81% - N N -- 30.24 in1024.0 mb 0.00 in0.0 mm 0.00 in0.0 mm 0.00 in0.0 mm
10:03 AM 33.8°F1.0°C 27.3°F-2.6°C 82% - N N -- 30.23 in1023.7 mb 0.00 in0.0 mm 0.00 in0.0 mm 0.00 in0.0 mm
10:22 AM 35.4°F1.9°C 28.2°F-2.1°C 80% - N N -- 30.23 in1023.7 mb 0.00 in0.0 mm 0.00 in0.0 mm 0.00 in0.0 mm
10:43 AM 37.2°F2.9°C 28.6°F-1.9°C 76% - N N -- 30.23 in1023.7 mb 0.00 in0.0 mm 0.00 in0.0 mm 0.00 in0.0 mm
11:02 AM 38.7°F3.7°C 28.8°F-1.8°C 73% - N N -- 30.22 in1023.4 mb 0.00 in0.0 mm 0.00 in0.0 mm 0.00 in0.0 mm
11:19 AM 39.9°F4.4°C 29.3°F-1.5°C 71% - N N -- 30.21 in1023.0 mb 0.00 in0.0 mm 0.00 in0.0 mm 0.00 in0.0 mm
11:43 AM 42.1°F5.6°C 29.5°F-1.4°C 66% - N N -- 30.19 in1022.4 mb 0.00 in0.0 mm 0.00 in0.0 mm 0.00 in0.0 mm
12:04 PM 43.0°F6.1°C 29.7°F-1.3°C 64% - N N -- 30.18 in1022.0 mb 0.00 in0.0 mm 0.00 in0.0 mm 0.00 in0.0 mm
12:24 PM 43.9°F6.6°C 29.7°F-1.3°C 62% - N N -- 30.17 in1021.7 mb 0.00 in0.0 mm 0.00 in0.0 mm 0.00 in0.0 mm
12:44 PM 44.1°F6.7°C 28.8°F-1.8°C 59% - N N -- 30.17 in1021.7 mb 0.00 in0.0 mm 0.00 in0.0 mm 0.00 in0.0 mm
01:04 PM 44.2°F6.8°C 28.9°F-1.7°C 59% - N N -- 30.16 in1021.3 mb 0.00 in0.0 mm 0.00 in0.0 mm 0.00 in0.0 mm
01:24 PM 44.2°F6.8°C 28.9°F-1.7°C 59% - N N -- 30.16 in1021.3 mb 0.00 in0.0 mm 0.00 in0.0 mm 0.00 in0.0 mm
01:44 PM 44.2°F6.8°C 28.9°F-1.7°C 59% - N N -- 30.15 in1021.0 mb 0.00 in0.0 mm 0.00 in0.0 mm 0.00 in0.0 mm
02:05 PM 44.2°F6.8°C 28.6°F-1.9°C 58% - N N -- 30.14 in1020.7 mb 0.00 in0.0 mm 0.00 in0.0 mm 0.00 in0.0 mm
02:25 PM 44.2°F6.8°C 28.9°F-1.7°C 59% - N N -- 30.14 in1020.7 mb 0.00 in0.0 mm 0.00 in0.0 mm 0.00 in0.0 mm
02:45 PM 43.9°F6.6°C 28.2°F-2.1°C 58% - N N -- 30.14 in1020.7 mb 0.00 in0.0 mm 0.00 in0.0 mm 0.00 in0.0 mm
03:05 PM 42.3°F5.7°C 27.0°F-2.8°C 59% - N N -- 30.14 in1020.7 mb 0.00 in0.0 mm 0.00 in0.0 mm 0.00 in0.0 mm
03:25 PM 41.0°F5.0°C 26.6°F-3.0°C 61% - N N -- 30.14 in1020.7 mb 0.00 in0.0 mm 0.00 in0.0 mm 0.00 in0.0 mm
03:45 PM 39.7°F4.3°C 25.7°F-3.5°C 62% - N N -- 30.14 in1020.7 mb 0.00 in0.0 mm 0.00 in0.0 mm 0.00 in0.0 mm
04:05 PM 38.5°F3.6°C 25.3°F-3.7°C 64% - N N -- 30.13 in1020.3 mb 0.00 in0.0 mm 0.00 in0.0 mm 0.00 in0.0 mm
04:26 PM 36.9°F2.7°C 24.4°F-4.2°C 66% - N N -- 30.14 in1020.7 mb 0.00 in0.0 mm 0.00 in0.0 mm 0.00 in0.0 mm
04:45 PM 35.6°F2.0°C 24.1°F-4.4°C 68% - N N -- 30.15 in1021.0 mb 0.00 in0.0 mm 0.00 in0.0 mm 0.00 in0.0 mm
05:06 PM 34.7°F1.5°C 23.5°F-4.7°C 69% - N N -- 30.16 in1021.3 mb 0.00 in0.0 mm 0.00 in0.0 mm 0.00 in0.0 mm
05:25 PM 33.8°F1.0°C 22.6°F-5.2°C 69% - N N -- 30.16 in1021.3 mb 0.00 in0.0 mm 0.00 in0.0 mm 0.00 in0.0 mm
05:46 PM 32.7°F0.4°C 22.3°F-5.4°C 71% - N N -- 30.16 in1021.3 mb 0.00 in0.0 mm 0.00 in0.0 mm 0.00 in0.0 mm
06:05 PM 32.0°F0.0°C 22.1°F-5.5°C 72% - N N -- 30.17 in1021.7 mb 0.00 in0.0 mm 0.00 in0.0 mm 0.00 in0.0 mm
06:26 PM 32.0°F0.0°C 22.5°F-5.3°C 73% - N N -- 30.18 in1022.0 mb 0.00 in0.0 mm 0.00 in0.0 mm 0.00 in0.0 mm
06:45 PM 31.3°F-0.4°C 21.7°F-5.7°C 73% - N N -- 30.18 in1022.0 mb 0.00 in0.0 mm 0.00 in0.0 mm 0.00 in0.0 mm
07:06 PM 30.7°F-0.7°C 21.6°F-5.8°C 74% - N N -- 30.18 in1022.0 mb 0.00 in0.0 mm 0.00 in0.0 mm 0.00 in0.0 mm
07:27 PM 30.2°F-1.0°C 21.0°F-6.1°C 74% - N N -- 30.18 in1022.0 mb 0.00 in0.0 mm 0.00 in0.0 mm 0.00 in0.0 mm
07:46 PM 29.8°F-1.2°C 21.0°F-6.1°C 75% - N N -- 30.18 in1022.0 mb 0.00 in0.0 mm 0.00 in0.0 mm 0.00 in0.0 mm
08:06 PM 29.3°F-1.5°C 20.5°F-6.4°C 75% - N N -- 30.19 in1022.4 mb 0.00 in0.0 mm 0.00 in0.0 mm 0.00 in0.0 mm
08:26 PM 28.9°F-1.7°C 20.1°F-6.6°C 75% - N N -- 30.19 in1022.4 mb 0.00 in0.0 mm 0.00 in0.0 mm 0.00 in0.0 mm
08:47 PM 28.8°F-1.8°C 20.3°F-6.5°C 76% - N N -- 30.19 in1022.4 mb 0.00 in0.0 mm 0.00 in0.0 mm 0.00 in0.0 mm
09:07 PM 28.4°F-2.0°C 19.9°F-6.7°C 76% - N N -- 30.19 in1022.4 mb 0.00 in0.0 mm 0.00 in0.0 mm 0.00 in0.0 mm
09:27 PM 28.4°F-2.0°C 20.3°F-6.5°C 77% - N N -- 30.19 in1022.4 mb 0.00 in0.0 mm 0.00 in0.0 mm 0.00 in0.0 mm
09:43 PM 28.2°F-2.1°C 20.1°F-6.6°C 77% - N N -- 30.18 in1022.0 mb 0.00 in0.0 mm 0.00 in0.0 mm 0.00 in0.0 mm
10:08 PM 28.2°F-2.1°C 20.1°F-6.6°C 77% - N N -- 30.18 in1022.0 mb 0.00 in0.0 mm 0.00 in0.0 mm 0.00 in0.0 mm
10:28 PM 28.2°F-2.1°C 20.1°F-6.6°C 77% - N N -- 30.17 in1021.7 mb 0.00 in0.0 mm 0.00 in0.0 mm 0.00 in0.0 mm
10:48 PM 28.0°F-2.2°C 19.9°F-6.7°C 77% - N N -- 30.18 in1022.0 mb 0.00 in0.0 mm 0.00 in0.0 mm 0.00 in0.0 mm
11:08 PM 27.9°F-2.3°C 19.8°F-6.8°C 77% - N N -- 30.18 in1022.0 mb 0.00 in0.0 mm 0.00 in0.0 mm 0.00 in0.0 mm
11:28 PM 27.7°F-2.4°C 19.9°F-6.7°C 78% - N N -- 30.17 in1021.7 mb 0.00 in0.0 mm 0.00 in0.0 mm 0.00 in0.0 mm
11:48 PM 27.5°F-2.5°C 20.1°F-6.6°C 79% - N N -- 30.16 in1021.3 mb 0.00 in0.0 mm 0.00 in0.0 mm 0.00 in0.0 mm
11:59 PM 27.5°F-2.5°C 20.1°F-6.6°C 79% - N N -- 30.16 in1021.3 mb 0.00 in0.0 mm 0.00 in0.0 mm 0.00 in0.0 mm